Time;durP1;ratioP1;P1;durP2;ratioP2;P2;SDS_P1;SDS_P2;PMS_P1;PMS_P2;Temp;Humidity;BMP_temperature;BMP_pressure;BME280_temperature;BME280_humidity;BME280_pressure;Samples;Min_cycle;Max_cycle;Signal;HPM_P1;HPM_P2
2021/06/19 00:00:11;;;;;;;12.85;9.95;;;18.20;99.90;;;;;;5113938;28;20197;-81
2021/06/19 00:02:37;;;;;;;15.52;9.65;;;18.10;99.90;;;;;;5114288;28;20170;-80
2021/06/19 00:05:04;;;;;;;14.38;10.57;;;18.00;99.90;;;;;;5113632;28;20530;-81
2021/06/19 00:07:30;;;;;;;15.23;9.75;;;17.90;99.90;;;;;;5114106;28;20181;-81
2021/06/19 00:09:56;;;;;;;14.82;10.48;;;;;;;;;;5112944;28;20180;-81
2021/06/19 00:12:22;;;;;;;15.10;10.10;;;;;;;;;;5113377;28;20278;-81
2021/06/19 00:14:47;;;;;;;15.38;10.32;;;17.80;99.90;;;;;;5112578;28;20158;-81
2021/06/19 00:17:13;;;;;;;14.73;9.65;;;;;;;;;;5113887;28;20615;-81
2021/06/19 00:19:39;;;;;;;18.45;11.05;;;17.60;99.90;;;;;;5113679;28;20209;-81
2021/06/19 00:22:05;;;;;;;18.67;11.45;;;18.10;99.90;;;;;;5112793;28;20185;-81
2021/06/19 00:24:37;;;;;;;15.18;11.07;;;17.60;99.90;;;;;;5113707;28;20174;-81
2021/06/19 00:27:03;;;;;;;13.57;11.40;;;17.40;99.90;;;;;;5112596;28;20170;-81
2021/06/19 00:29:31;;;;;;;18.02;10.50;;;17.90;99.90;;;;;;5113326;28;20669;-81
2021/06/19 00:31:57;;;;;;;15.82;11.48;;;17.40;99.90;;;;;;5114066;28;20193;-81
2021/06/19 00:34:23;;;;;;;17.95;11.40;;;;;;;;;;5112221;28;20174;-80
2021/06/19 00:36:48;;;;;;;17.05;11.00;;;17.60;99.90;;;;;;5113888;28;20227;-80
2021/06/19 00:39:14;;;;;;;12.98;10.18;;;;;;;;;;5112580;28;20241;-81
2021/06/19 00:41:40;;;;;;;19.70;10.70;;;17.60;99.90;;;;;;5112680;28;20213;-81
2021/06/19 00:44:20;;;;;;;15.48;11.10;;;17.50;99.90;;;;;;5113765;28;20693;-80
2021/06/19 00:46:51;;;;;;;18.23;11.20;;;17.30;99.90;;;;;;5112425;28;20617;-81
2021/06/19 00:49:17;;;;;;;16.17;10.65;;;17.90;99.90;;;;;;5112420;28;20280;-81
2021/06/19 00:51:43;;;;;;;15.57;11.48;;;17.50;99.90;;;;;;5112586;28;20241;-81
2021/06/19 00:54:09;;;;;;;14.73;10.73;;;17.50;99.90;;;;;;5113765;28;20166;-80
2021/06/19 00:56:36;;;;;;;14.55;11.32;;;;;;;;;;5113500;28;20270;-80
2021/06/19 00:59:06;;;;;;;16.45;11.00;;;17.50;99.90;;;;;;5112477;28;20202;-80
2021/06/19 01:01:33;;;;;;;19.13;10.70;;;17.40;99.90;;;;;;5113412;28;20177;-81
2021/06/19 01:04:02;;;;;;;17.35;10.57;;;17.50;99.90;;;;;;5113647;28;20205;-80
2021/06/19 01:06:28;;;;;;;13.75;10.45;;;17.40;99.90;;;;;;5113281;28;20526;-81
2021/06/19 01:08:54;;;;;;;16.35;11.63;;;17.40;99.90;;;;;;5113497;28;20185;-81
2021/06/19 01:11:23;;;;;;;16.23;10.95;;;17.50;99.90;;;;;;5113181;28;20182;-81
2021/06/19 01:13:50;;;;;;;15.30;10.85;;;17.80;99.90;;;;;;5112264;28;20268;-80
2021/06/19 01:16:19;;;;;;;15.15;11.45;;;17.40;99.90;;;;;;5113735;28;20174;-80
2021/06/19 01:18:46;;;;;;;22.23;11.18;;;17.50;99.90;;;;;;5117416;28;20217;-81
2021/06/19 01:21:13;;;;;;;18.95;11.60;;;17.50;99.90;;;;;;5117219;28;20186;-81
2021/06/19 01:23:39;;;;;;;17.30;12.30;;;17.60;99.90;;;;;;5117136;28;20261;-81
2021/06/19 01:26:05;;;;;;;21.35;12.95;;;;;;;;;;5117432;28;20579;-81
2021/06/19 01:28:32;;;;;;;17.92;11.82;;;17.70;99.90;;;;;;5117107;28;20184;-81
2021/06/19 01:30:57;;;;;;;16.30;10.75;;;17.20;99.90;;;;;;5116985;28;20178;-81
2021/06/19 01:33:23;;;;;;;15.35;10.93;;;17.00;99.90;;;;;;5115471;28;20185;-81
2021/06/19 01:35:48;;;;;;;14.15;11.50;;;17.60;99.90;;;;;;5117092;28;20170;-81
2021/06/19 01:38:14;;;;;;;18.48;11.50;;;17.40;99.90;;;;;;5115987;28;20178;-80
2021/06/19 01:40:40;;;;;;;13.50;10.63;;;17.20;99.90;;;;;;5132546;27;20683;-80
2021/06/19 01:43:05;;;;;;;17.30;11.75;;;17.30;99.90;;;;;;5115870;28;20614;-81
2021/06/19 01:45:34;;;;;;;17.48;11.60;;;17.20;99.90;;;;;;5116869;28;20169;-81
2021/06/19 01:48:07;;;;;;;26.05;12.35;;;17.20;99.90;;;;;;5117007;28;20212;-81
2021/06/19 01:50:33;;;;;;;20.20;12.23;;;17.10;99.90;;;;;;5116593;28;20265;-81
2021/06/19 01:53:00;;;;;;;19.65;12.50;;;17.00;99.90;;;;;;5115676;28;20619;-81
2021/06/19 01:55:26;;;;;;;18.13;12.55;;;17.20;99.90;;;;;;5115357;28;20199;-81
2021/06/19 01:57:55;;;;;;;18.65;12.10;;;17.10;99.90;;;;;;5116562;28;20261;-81
2021/06/19 02:00:28;;;;;;;18.77;12.10;;;17.10;99.90;;;;;;5116100;28;20198;-83
2021/06/19 02:02:54;;;;;;;20.75;12.93;;;17.10;99.90;;;;;;5116472;28;20626;-81
2021/06/19 02:05:22;;;;;;;20.60;12.93;;;17.00;99.90;;;;;;5116631;28;20181;-81
2021/06/19 02:07:50;;;;;;;24.40;13.15;;;16.80;99.90;;;;;;5116634;28;20173;-81
2021/06/19 02:10:18;;;;;;;23.45;13.20;;;17.00;99.90;;;;;;5115258;28;20184;-81
2021/06/19 02:12:44;;;;;;;19.45;14.40;;;16.80;99.90;;;;;;5114677;28;20694;-81
2021/06/19 02:15:11;;;;;;;24.42;14.25;;;17.00;99.90;;;;;;5115233;28;20707;-81
2021/06/19 02:17:37;;;;;;;20.80;14.48;;;16.90;99.90;;;;;;5115549;28;20186;-81
2021/06/19 02:20:05;;;;;;;21.58;14.30;;;17.30;99.90;;;;;;5116271;28;20209;-81
2021/06/19 02:22:30;;;;;;;22.55;14.13;;;16.90;99.90;;;;;;5114473;28;20683;-81
2021/06/19 02:24:56;;;;;;;24.38;14.75;;;;;;;;;;5114809;28;20193;-81
2021/06/19 02:27:22;;;;;;;20.52;14.55;;;;;;;;;;5114863;28;20305;-81
2021/06/19 02:29:50;;;;;;;29.25;14.82;;;;;;;;;;5113528;28;20657;-81
2021/06/19 02:32:15;;;;;;;19.75;14.73;;;17.30;99.90;;;;;;5114728;28;20231;-81
2021/06/19 02:34:41;;;;;;;21.70;15.05;;;;;;;;;;5115713;28;20178;-81
2021/06/19 02:37:07;;;;;;;23.95;14.10;;;17.10;99.90;;;;;;5114636;28;20212;-81
2021/06/19 02:39:33;;;;;;;19.52;14.15;;;;;;;;;;5115408;28;20241;-82
2021/06/19 02:41:59;;;;;;;23.08;14.88;;;16.70;99.90;;;;;;5115496;28;20513;-81
2021/06/19 02:44:25;;;;;;;22.77;14.18;;;;;;;;;;5115554;28;20242;-82
2021/06/19 02:46:51;;;;;;;20.60;14.07;;;;;;;;;;5115627;28;20185;-80
2021/06/19 02:49:17;;;;;;;21.05;14.40;;;17.10;99.90;;;;;;5115744;28;20306;-81
2021/06/19 02:51:42;;;;;;;24.27;14.65;;;17.30;99.90;;;;;;5114211;28;20257;-82
2021/06/19 02:54:08;;;;;;;24.77;13.60;;;16.90;99.90;;;;;;5114072;28;20337;-81
2021/06/19 02:56:34;;;;;;;24.13;14.23;;;;;;;;;;5113947;28;20217;-81
2021/06/19 02:59:00;;;;;;;21.20;14.07;;;17.50;99.90;;;;;;5115161;28;20210;-81
2021/06/19 03:01:26;;;;;;;22.98;14.45;;;;;;;;;;5115382;28;20626;-81
2021/06/19 03:03:51;;;;;;;20.38;14.30;;;17.40;99.90;;;;;;5115527;28;20189;-81
2021/06/19 03:06:17;;;;;;;23.48;14.60;;;;;;;;;;5114491;28;20178;-81
2021/06/19 03:08:43;;;;;;;17.35;13.35;;;17.20;99.90;;;;;;5115101;28;20178;-81
2021/06/19 03:11:09;;;;;;;22.52;15.27;;;17.70;99.90;;;;;;5097022;28;20332;-81
2021/06/19 03:13:35;;;;;;;21.10;14.02;;;;;;;;;;5113425;28;20320;-81
2021/06/19 03:16:01;;;;;;;19.58;14.05;;;17.40;99.90;;;;;;5115159;28;20209;-81
2021/06/19 03:18:27;;;;;;;25.10;14.25;;;;;;;;;;5115004;28;20197;-81
2021/06/19 03:20:52;;;;;;;18.90;14.45;;;17.50;99.90;;;;;;5113626;28;20509;-81
2021/06/19 03:23:18;;;;;;;18.50;13.65;;;17.60;99.90;;;;;;5130913;27;20181;-81
2021/06/19 03:25:44;;;;;;;20.77;13.93;;;;;;;;;;5115034;28;20620;-82
2021/06/19 03:28:12;;;;;;;19.15;13.10;;;17.60;99.90;;;;;;5115014;28;20229;-81
2021/06/19 03:30:40;;;;;;;18.20;12.55;;;17.90;99.90;;;;;;5113507;28;20182;-81
2021/06/19 03:33:08;;;;;;;15.50;11.52;;;17.80;99.90;;;;;;5114536;28;20257;-81
2021/06/19 03:35:33;;;;;;;18.65;11.45;;;18.10;99.90;;;;;;5114716;28;20197;-82
2021/06/19 03:38:00;;;;;;;16.17;11.27;;;;;;;;;;5114522;28;20178;-81
2021/06/19 03:40:27;;;;;;;15.52;11.43;;;17.80;99.90;;;;;;5114432;28;20243;-81
2021/06/19 03:42:53;;;;;;;18.52;11.93;;;17.90;99.90;;;;;;5114421;28;20188;-81
2021/06/19 03:45:21;;;;;;;14.90;10.27;;;17.80;99.90;;;;;;5113530;28;20178;-81
2021/06/19 03:47:48;;;;;;;13.35;10.43;;;17.80;99.90;;;;;;5114033;28;20206;-81
2021/06/19 03:50:17;;;;;;;16.27;9.45;;;18.20;99.90;;;;;;5114493;28;20314;-81
2021/06/19 03:52:43;;;;;;;12.70;9.02;;;18.00;99.90;;;;;;5114152;28;20174;-81
2021/06/19 03:55:10;;;;;;;10.77;9.07;;;18.40;99.90;;;;;;5114212;28;20638;-82
2021/06/19 03:57:38;;;;;;;14.90;9.20;;;18.90;99.90;;;;;;5113228;28;20193;-81
2021/06/19 04:00:09;;;;;;;11.43;8.38;;;18.90;99.90;;;;;;5114301;28;20210;-82
2021/06/19 04:02:35;;;;;;;12.88;8.80;;;;;;;;;;5112764;28;20178;-82
2021/06/19 04:05:01;;;;;;;11.18;8.52;;;18.70;99.90;;;;;;5113152;28;20205;-81
2021/06/19 04:07:27;;;;;;;13.77;8.50;;;18.70;99.90;;;;;;5114284;28;20174;-82
2021/06/19 04:09:53;;;;;;;12.35;8.32;;;;;;;;;;5113120;28;20181;-81
2021/06/19 04:12:23;;;;;;;12.73;8.15;;;18.70;99.90;;;;;;5112807;28;20177;-82
2021/06/19 04:14:49;;;;;;;11.55;7.95;;;19.50;99.90;;;;;;5113723;28;20517;-81
2021/06/19 04:17:15;;;;;;;12.45;7.70;;;19.30;99.90;;;;;;5114004;28;20652;-81
2021/06/19 04:19:43;;;;;;;11.30;7.50;;;19.30;99.90;;;;;;5112568;28;20258;-82
2021/06/19 04:22:10;;;;;;;13.27;8.13;;;19.70;99.90;;;;;;5112984;28;20639;-81
2021/06/19 04:24:37;;;;;;;10.23;7.68;;;19.30;99.90;;;;;;5113737;28;20277;-83
2021/06/19 04:27:04;;;;;;;10.55;7.43;;;19.50;99.90;;;;;;5113968;28;20260;-81
2021/06/19 04:29:31;;;;;;;13.77;8.40;;;19.60;99.90;;;;;;5113658;28;20201;-81
2021/06/19 04:31:58;;;;;;;8.48;7.57;;;19.80;99.90;;;;;;5113308;28;20583;-81
2021/06/19 04:34:24;;;;;;;10.63;6.75;;;20.30;99.90;;;;;;5113970;28;20252;-81
2021/06/19 04:36:50;;;;;;;9.65;7.55;;;19.60;99.90;;;;;;5113720;28;20261;-82
2021/06/19 04:39:16;;;;;;;12.82;7.75;;;19.80;99.90;;;;;;5113482;28;20250;-81
2021/06/19 04:44:21;;;;;;;12.40;7.55;;;;;;;;;;5112748;28;20216;-82
2021/06/19 04:46:47;;;;;;;11.10;6.90;;;20.30;99.90;;;;;;5112365;28;20541;-82
2021/06/19 04:49:13;;;;;;;13.10;7.10;;;20.50;99.90;;;;;;5112441;28;20186;-82
2021/06/19 04:51:39;;;;;;;10.30;7.35;;;20.70;99.90;;;;;;5114323;28;20170;-83
2021/06/19 04:54:06;;;;;;;16.52;7.95;;;20.30;99.90;;;;;;5099462;28;20715;-81
2021/06/19 04:56:33;;;;;;;9.35;7.47;;;;;;;;;;5117813;28;20166;-82
2021/06/19 04:59:01;;;;;;;12.77;7.47;;;21.00;99.90;;;;;;5117449;28;20496;-82
2021/06/19 05:01:28;;;;;;;11.35;7.00;;;;;;;;;;5117064;28;20195;-82
2021/06/19 05:03:54;;;;;;;9.75;6.95;;;;;;;;;;5117124;28;20630;-82
2021/06/19 05:06:20;;;;;;;9.20;7.07;;;;;;;;;;5116189;28;20178;-82
2021/06/19 05:08:46;;;;;;;11.18;7.05;;;;;;;;;;5116816;28;20292;-83
2021/06/19 05:11:11;;;;;;;7.68;5.85;;;21.60;99.90;;;;;;5116895;28;20170;-82
2021/06/19 05:13:37;;;;;;;11.85;7.25;;;;;;;;;;5117200;28;20708;-83
2021/06/19 05:16:04;;;;;;;10.95;6.95;;;;;;;;;;5116104;28;20277;-82
2021/06/19 05:18:30;;;;;;;12.88;6.20;;;21.50;99.90;;;;;;5116466;28;20278;-81
2021/06/19 05:20:56;;;;;;;7.55;6.00;;;21.20;99.90;;;;;;5117111;28;20634;-80
2021/06/19 05:23:22;;;;;;;8.85;6.70;;;;;;;;;;5115503;28;20188;-81
2021/06/19 05:25:48;;;;;;;14.95;6.22;;;;;;;;;;5114983;28;20192;-81
2021/06/19 05:28:14;;;;;;;10.15;6.03;;;;;;;;;;5116631;27;20181;-82
2021/06/19 05:30:40;;;;;;;15.52;6.90;;;22.10;99.90;;;;;;5116858;28;20631;-81
2021/06/19 05:33:06;;;;;;;6.35;5.57;;;;;;;;;;5116436;28;20178;-81
2021/06/19 05:35:33;;;;;;;8.88;6.30;;;;;;;;;;5115061;28;20193;-81
2021/06/19 05:37:59;;;;;;;9.95;6.82;;;;;;;;;;5114969;28;20622;-81
2021/06/19 05:40:25;;;;;;;8.40;6.22;;;;;;;;;;5116041;28;20235;-81
2021/06/19 05:42:53;;;;;;;13.88;6.57;;;22.30;99.90;;;;;;5115913;28;20195;-81
2021/06/19 05:45:19;;;;;;;10.50;6.22;;;;;;;;;;5115968;28;20514;-81
2021/06/19 05:47:45;;;;;;;21.08;6.60;;;;;;;;;;5116210;28;20188;-81
2021/06/19 05:50:11;;;;;;;11.07;5.70;;;22.50;99.90;;;;;;5115924;28;20178;-81
2021/06/19 05:52:37;;;;;;;8.02;5.63;;;;;;;;;;5116182;28;20179;-81
2021/06/19 05:55:05;;;;;;;13.48;4.80;;;23.10;99.90;;;;;;5115789;28;20285;-81
2021/06/19 05:57:31;;;;;;;11.75;5.25;;;;;;;;;;5115789;28;20174;-81
2021/06/19 05:59:57;;;;;;;8.00;5.00;;;;;;;;;;5115210;28;20209;-81
2021/06/19 06:02:23;;;;;;;6.20;5.07;;;;;;;;;;5115067;28;20166;-81
2021/06/19 06:04:49;;;;;;;6.70;5.00;;;;;;;;;;5113986;28;20231;-81
2021/06/19 06:07:15;;;;;;;9.40;4.88;;;;;;;;;;5115273;28;20185;-81
2021/06/19 06:09:41;;;;;;;10.82;5.78;;;;;;;;;;5115349;28;20189;-81
2021/06/19 06:12:08;;;;;;;9.25;5.55;;;23.90;99.90;;;;;;5114825;28;20185;-81
2021/06/19 06:14:34;;;;;;;6.45;4.65;;;;;;;;;;5114045;28;20177;-81
2021/06/19 06:17:00;;;;;;;6.10;4.45;;;;;;;;;;5113933;28;20580;-81
2021/06/19 06:19:26;;;;;;;6.22;4.63;;;;;;;;;;5115609;27;20210;-81
2021/06/19 06:21:52;;;;;;;8.38;4.85;;;;;;;;;;5115331;27;20177;-82
2021/06/19 06:24:18;;;;;;;10.85;5.18;;;;;;;;;;5115733;28;20261;-81
2021/06/19 06:26:45;;;;;;;12.15;4.78;;;;;;;;;;5115428;28;20178;-81
2021/06/19 06:29:10;;;;;;;12.75;5.20;;;24.40;99.90;;;;;;5115073;28;20174;-82
2021/06/19 06:31:37;;;;;;;5.07;4.55;;;;;;;;;;5115325;28;20181;-81
2021/06/19 06:34:03;;;;;;;11.10;4.90;;;;;;;;;;5115010;28;20202;-81
2021/06/19 06:36:29;;;;;;;8.05;5.10;;;;;;;;;;5098161;28;20177;-82
2021/06/19 06:38:55;;;;;;;11.20;4.70;;;25.00;99.90;;;;;;5097406;28;20206;-81
2021/06/19 06:41:24;;;;;;;10.07;4.75;;;24.80;99.90;;;;;;5116269;28;20186;-81
2021/06/19 06:43:50;;;;;;;8.23;5.00;;;;;;;;;;5114601;28;20634;-84
2021/06/19 06:46:16;;;;;;;8.23;4.95;;;;;;;;;;5112793;28;20398;-82
2021/06/19 06:48:42;;;;;;;8.55;5.22;;;;;;;;;;5112531;28;20283;-81
2021/06/19 06:51:08;;;;;;;8.80;4.35;;;;;;;;;;5111710;28;20642;-83
2021/06/19 06:53:34;;;;;;;9.68;5.15;;;;;;;;;;5113459;28;20185;-82
2021/06/19 06:56:00;;;;;;;9.15;4.47;;;;;;;;;;5111902;28;20177;-82
2021/06/19 06:58:26;;;;;;;6.88;4.65;;;;;;;;;;5113185;28;20177;-81
2021/06/19 07:00:52;;;;;;;16.27;4.85;;;;;;;;;;5111908;28;20251;-83
2021/06/19 07:03:18;;;;;;;8.18;3.97;;;;;;;;;;5113978;28;20276;-82
2021/06/19 07:05:44;;;;;;;6.43;4.35;;;;;;;;;;5113699;28;20191;-81
2021/06/19 07:08:10;;;;;;;8.55;4.60;;;;;;;;;;5114839;28;20193;-81
2021/06/19 07:10:36;;;;;;;5.55;4.10;;;;;;;;;;5115469;28;20698;-83
2021/06/19 07:13:02;;;;;;;10.35;4.13;;;;;;;;;;5114529;28;20261;-84
2021/06/19 07:15:28;;;;;;;6.72;4.20;;;;;;;;;;5114254;28;20665;-83
2021/06/19 07:17:54;;;;;;;7.72;3.28;;;;;;;;;;5114704;28;20181;-84
2021/06/19 07:20:20;;;;;;;7.47;3.60;;;;;;;;;;5114979;28;20206;-83
2021/06/19 07:22:46;;;;;;;5.32;3.40;;;;;;;;;;5113738;28;20563;-83
2021/06/19 07:25:13;;;;;;;10.15;4.07;;;27.00;99.90;;;;;;5113245;28;20182;-83
2021/06/19 07:27:40;;;;;;;5.93;3.35;;;26.70;99.90;;;;;;5114837;28;20231;-82
2021/06/19 07:30:08;;;;;;;6.93;3.50;;;26.30;99.90;;;;;;5095838;28;20216;-83
2021/06/19 07:32:35;;;;;;;4.18;3.17;;;26.70;99.90;;;;;;5114167;28;20654;-82
2021/06/19 07:35:01;;;;;;;15.30;3.50;;;;;;;;;;5113092;28;20192;-83
2021/06/19 07:37:27;;;;;;;9.10;3.75;;;;;;;;;;5113095;28;20272;-83
2021/06/19 07:39:54;;;;;;;7.80;3.88;;;;;;;;;;5113022;28;20270;-83
2021/06/19 07:42:23;;;;;;;7.00;3.70;;;26.80;99.90;;;;;;5113041;28;20174;-83
2021/06/19 07:44:50;;;;;;;5.40;3.67;;;26.90;99.90;;;;;;5114528;28;20170;-83
2021/06/19 07:47:16;;;;;;;4.38;3.58;;;;;;;;;;5112603;28;20687;-83
2021/06/19 07:49:42;;;;;;;9.35;3.35;;;;;;;;;;5114487;28;20618;-83
2021/06/19 07:52:08;;;;;;;6.03;3.63;;;27.00;99.90;;;;;;5112644;28;20292;-83
2021/06/19 07:54:37;;;;;;;6.70;4.25;;;;;;;;;;5112325;28;20697;-84
2021/06/19 07:57:07;;;;;;;6.07;3.58;;;26.60;99.90;;;;;;5110896;28;20170;-83
2021/06/19 07:59:36;;;;;;;9.45;3.90;;;27.10;99.90;;;;;;5113115;28;20198;-85
2021/06/19 08:02:02;;;;;;;9.63;3.65;;;27.10;99.90;;;;;;5111761;28;20174;-87
2021/06/19 08:04:28;;;;;;;6.03;3.78;;;;;;;;;;5111417;28;20173;-84
2021/06/19 08:06:54;;;;;;;8.18;3.45;;;;;;;;;;5112879;28;20170;-84
2021/06/19 08:09:20;;;;;;;9.45;3.85;;;;;;;;;;5113035;28;20185;-84
2021/06/19 08:11:46;;;;;;;6.93;4.07;;;;;;;;;;5112793;28;20691;-84
2021/06/19 08:14:13;;;;;;;5.68;3.97;;;27.30;99.90;;;;;;5112307;28;20229;-84
2021/06/19 08:16:39;;;;;;;4.82;3.80;;;;;;;;;;5112987;28;20174;-83
2021/06/19 08:19:05;;;;;;;7.53;3.53;;;;;;;;;;5113799;28;20217;-83
2021/06/19 08:21:31;;;;;;;6.55;3.50;;;;;;;;;;5113914;28;20177;-83
2021/06/19 08:23:57;;;;;;;6.38;3.72;;;;;;;;;;5114066;28;20182;-83
2021/06/19 08:26:23;;;;;;;9.00;3.72;;;;;;;;;;5111589;28;20186;-84
2021/06/19 08:28:49;;;;;;;5.53;3.70;;;;;;;;;;5095693;28;20182;-83
2021/06/19 08:31:15;;;;;;;6.18;3.40;;;;;;;;;;5113392;28;20609;-84
2021/06/19 08:33:41;;;;;;;5.53;3.55;;;;;;;;;;5111991;28;20186;-83
2021/06/19 08:36:07;;;;;;;6.25;3.65;;;;;;;;;;5110394;28;20268;-85
2021/06/19 08:38:34;;;;;;;4.78;3.53;;;;;;;;;;5110728;28;20174;-84
2021/06/19 08:41:00;;;;;;;4.07;3.30;;;27.90;99.90;;;;;;5110751;28;20286;-85
2021/06/19 08:43:26;;;;;;;7.38;3.10;;;;;;;;;;5111556;28;20315;-84
2021/06/19 08:45:53;;;;;;;4.43;3.40;;;;;;;;;;5111735;28;20201;-84
2021/06/19 08:48:20;;;;;;;4.55;3.47;;;28.00;99.90;;;;;;5110386;28;20178;-84
2021/06/19 08:50:47;;;;;;;6.03;3.20;;;28.20;99.90;;;;;;5111513;28;20193;-84
2021/06/19 08:53:13;;;;;;;6.57;3.80;;;;;;;;;;5112252;28;20177;-84
2021/06/19 08:55:40;;;;;;;11.10;3.33;;;;;;;;;;5112309;28;20583;-83
2021/06/19 08:58:06;;;;;;;5.93;3.65;;;;;;;;;;5113193;28;20265;-83
2021/06/19 09:00:32;;;;;;;3.90;3.50;;;;;;;;;;5113280;28;20202;-83
2021/06/19 09:02:58;;;;;;;7.38;3.78;;;;;;;;;;5113311;28;20178;-84
2021/06/19 09:05:29;;;;;;;8.90;3.83;;;28.30;99.90;;;;;;5113281;28;20188;-83
2021/06/19 09:07:57;;;;;;;5.95;3.80;;;28.30;99.90;;;;;;5113615;28;20162;-83
2021/06/19 09:10:34;;;;;;;5.05;4.47;;;29.00;99.90;;;;;;5113301;28;20181;-84
2021/06/19 09:13:06;;;;;;;6.65;4.00;;;28.50;99.90;;;;;;5113282;28;20214;-84
2021/06/19 09:15:36;;;;;;;4.95;3.30;;;28.80;99.90;;;;;;5112725;28;20174;-84
2021/06/19 09:18:02;;;;;;;9.30;3.58;;;;;;;;;;5114407;28;20170;-84
2021/06/19 09:20:39;;;;;;;4.97;3.13;;;29.20;99.90;;;;;;5112833;28;20241;-83
2021/06/19 09:23:11;;;;;;;6.43;3.40;;;28.80;99.90;;;;;;5112539;28;20543;-85
2021/06/19 09:25:38;;;;;;;7.97;3.85;;;28.90;99.90;;;;;;5115183;28;20162;-84
2021/06/19 09:28:06;;;;;;;6.20;3.85;;;29.40;99.90;;;;;;5113461;28;20296;-83
2021/06/19 09:30:32;;;;;;;7.03;4.15;;;;;;;;;;5113286;28;20235;-84
2021/06/19 09:32:59;;;;;;;6.95;3.45;;;28.90;99.90;;;;;;5113529;28;20252;-83
2021/06/19 09:35:26;;;;;;;6.35;3.60;;;28.70;99.90;;;;;;5113619;28;20197;-83
2021/06/19 09:37:55;;;;;;;6.97;3.60;;;28.60;99.90;;;;;;5115271;28;20174;-83
2021/06/19 09:40:33;;;;;;;7.13;3.72;;;28.50;99.90;;;;;;5116132;28;20220;-84
2021/06/19 09:43:12;;;;;;;4.20;3.47;;;28.70;99.90;;;;;;5115699;28;20178;-84
2021/06/19 09:45:41;;;;;;;7.38;4.03;;;28.80;99.90;;;;;;5116915;28;20171;-83
2021/06/19 09:48:26;;;;;;;5.93;4.18;;;28.60;99.90;;;;;;5115337;28;20180;-82
2021/06/19 09:51:23;;;;;;;4.22;3.78;;;28.60;99.90;;;;;;5116278;28;20165;-82
2021/06/19 09:54:02;;;;;;;4.10;3.70;;;28.50;99.90;;;;;;5116935;28;20180;-83
2021/06/19 09:56:28;;;;;;;4.03;3.22;;;;;;;;;;5114482;28;20174;-83
2021/06/19 09:58:58;;;;;;;7.85;3.50;;;;;;;;;;5114512;28;20162;-84
2021/06/19 10:01:38;;;;;;;8.18;4.13;;;28.90;99.90;;;;;;5113307;28;20174;-83
2021/06/19 10:04:05;;;;;;;7.22;4.28;;;29.70;99.90;;;;;;5115032;28;20189;-85
2021/06/19 10:06:32;;;;;;;7.55;3.42;;;29.60;99.90;;;;;;5114315;28;20186;-84
2021/06/19 10:08:59;;;;;;;4.88;3.75;;;29.60;99.90;;;;;;5116010;28;20255;-83
2021/06/19 10:11:29;;;;;;;7.32;4.07;;;29.70;99.90;;;;;;5115503;28;20260;-83
2021/06/19 10:13:58;;;;;;;5.60;3.42;;;29.70;99.90;;;;;;5115147;28;20632;-84
2021/06/19 10:16:27;;;;;;;3.92;3.40;;;29.80;99.90;;;;;;5115038;28;20180;-83
2021/06/19 10:18:53;;;;;;;6.28;3.17;;;;;;;;;;5115081;28;20638;-83
2021/06/19 10:21:20;;;;;;;8.90;3.22;;;29.90;99.90;;;;;;5113674;28;20178;-83
2021/06/19 10:23:47;;;;;;;10.10;4.13;;;;;;;;;;5114909;28;20170;-82
2021/06/19 10:26:13;;;;;;;6.03;3.47;;;;;;;;;;5113852;28;20593;-83
2021/06/19 10:28:46;;;;;;;4.95;3.33;;;30.80;99.90;;;;;;5115524;28;20190;-83
2021/06/19 10:31:12;;;;;;;6.93;3.97;;;;;;;;;;5113115;28;20653;-83
2021/06/19 10:33:38;;;;;;;6.50;3.58;;;30.70;99.90;;;;;;5116242;28;20226;-82
2021/06/19 10:36:08;;;;;;;3.83;3.00;;;30.70;98.80;;;;;;5115224;28;20181;-82
2021/06/19 10:38:56;;;;;;;7.57;3.35;;;30.80;99.90;;;;;;5114428;28;20529;-82
2021/06/19 10:41:44;;;;;;;11.88;3.38;;;30.70;99.90;;;;;;5113988;28;20281;-82
2021/06/19 10:44:10;;;;;;;3.33;3.03;;;;;;;;;;5112707;28;20182;-83
2021/06/19 10:46:37;;;;;;;6.35;3.13;;;30.20;99.40;;;;;;5115317;28;20236;-82
2021/06/19 10:49:23;;;;;;;3.55;3.22;;;29.80;99.90;;;;;;5114317;28;20266;-83
2021/06/19 10:51:50;;;;;;;3.58;2.78;;;;;;;;;;5098185;28;20188;-82
2021/06/19 10:54:16;;;;;;;11.55;4.03;;;;;;;;;;5114645;28;20239;-84
2021/06/19 10:56:59;;;;;;;4.22;3.33;;;30.10;99.90;;;;;;5115248;28;20215;-83
2021/06/19 10:59:32;;;;;;;7.72;4.47;;;29.50;99.90;;;;;;5112722;28;20212;-83
2021/06/19 11:02:01;;;;;;;7.18;3.40;;;29.60;99.70;;;;;;5115118;28;20178;-83
2021/06/19 11:04:39;;;;;;;5.22;3.97;;;29.80;99.90;;;;;;5113606;28;20178;-84
2021/06/19 11:07:30;;;;;;;7.10;3.53;;;29.70;99.90;;;;;;5112402;28;20170;-82
2021/06/19 11:09:56;;;;;;;7.50;3.03;;;;;;;;;;5114835;28;20189;-82
2021/06/19 11:12:26;;;;;;;4.85;2.90;;;29.40;99.90;;;;;;5114846;28;20170;-83
2021/06/19 11:14:53;;;;;;;5.72;3.05;;;29.60;99.90;;;;;;5115339;28;20162;-83
2021/06/19 11:17:21;;;;;;;4.28;3.40;;;29.80;99.90;;;;;;5114352;28;20186;-83
2021/06/19 11:19:54;;;;;;;6.38;3.20;;;29.80;98.70;;;;;;5114928;28;20201;-82
2021/06/19 11:22:27;;;;;;;10.82;3.25;;;30.60;99.90;;;;;;5096616;28;20644;-83
2021/06/19 11:25:28;;;;;;;6.32;3.15;;;30.00;98.00;;;;;;5113505;28;20185;-82
2021/06/19 11:27:57;;;;;;;7.45;3.58;;;30.00;98.80;;;;;;5115130;28;20242;-82
2021/06/19 11:30:35;;;;;;;7.97;3.75;;;29.90;99.90;;;;;;5114164;28;20178;-82
2021/06/19 11:33:23;;;;;;;3.90;3.17;;;29.90;99.90;;;;;;5113216;28;20251;-82
2021/06/19 11:35:49;;;;;;;6.80;2.90;;;;;;;;;;5114765;28;20162;-82
2021/06/19 11:38:16;;;;;;;8.60;3.25;;;30.40;98.80;;;;;;5113334;28;20182;-82
2021/06/19 11:40:43;;;;;;;7.53;3.10;;;30.30;99.90;;;;;;5095858;28;20224;-83
2021/06/19 11:43:10;;;;;;;4.82;3.40;;;30.70;97.50;;;;;;5114545;28;20174;-82
2021/06/19 11:45:38;;;;;;;13.88;3.17;;;30.80;97.60;;;;;;5114071;28;20209;-83
2021/06/19 11:48:14;;;;;;;15.48;3.70;;;31.40;99.90;;;;;;5113183;28;20256;-83
2021/06/19 11:50:43;;;;;;;4.15;3.47;;;30.90;95.60;;;;;;5112326;28;20557;-83
2021/06/19 11:53:29;;;;;;;8.98;3.33;;;30.60;99.90;;;;;;5112369;28;20582;-83
2021/06/19 11:56:15;;;;;;;5.38;3.85;;;30.10;96.30;;;;;;5112663;28;20634;-82
2021/06/19 11:58:49;;;;;;;4.57;3.72;;;30.80;94.40;;;;;;5110914;28;21043;-83
2021/06/19 12:01:33;;;;;;;6.07;3.53;;;31.40;95.90;;;;;;5112170;28;20617;-83
2021/06/19 12:04:03;;;;;;;10.75;5.38;;;31.30;98.20;;;;;;5113625;28;20180;-83
2021/06/19 12:06:37;;;;;;;11.73;3.42;;;30.80;95.60;;;;;;5113241;28;20189;-82
2021/06/19 12:09:04;;;;;;;5.03;3.83;;;30.60;95.40;;;;;;5113571;28;20207;-83
2021/06/19 12:11:33;;;;;;;12.45;3.70;;;30.50;99.70;;;;;;5113240;28;20177;-82
2021/06/19 12:13:59;;;;;;;4.63;3.63;;;;;;;;;;5113482;28;20293;-82
2021/06/19 12:16:32;;;;;;;6.70;3.92;;;31.00;95.10;;;;;;5113210;28;20178;-82
2021/06/19 12:19:00;;;;;;;9.98;4.18;;;30.70;95.80;;;;;;5112093;28;20170;-82
2021/06/19 12:21:45;;;;;;;6.25;3.90;;;30.40;98.10;;;;;;5113508;28;20276;-82
2021/06/19 12:24:20;;;;;;;4.63;3.22;;;30.20;97.50;;;;;;5113697;28;20162;-82
2021/06/19 12:26:59;;;;;;;8.18;3.47;;;30.70;94.50;;;;;;5113608;28;20200;-82
2021/06/19 12:29:31;;;;;;;4.68;3.50;;;30.60;96.70;;;;;;5113654;28;20257;-83
2021/06/19 12:31:57;;;;;;;4.45;3.38;;;;;;;;;;5109548;28;20202;-82
2021/06/19 12:34:26;;;;;;;10.80;3.67;;;;;;;;;;5111997;28;20174;-82
2021/06/19 12:36:53;;;;;;;6.93;3.40;;;30.80;93.40;;;;;;5111795;28;20182;-82
2021/06/19 12:39:23;;;;;;;6.57;3.38;;;30.60;97.10;;;;;;5113304;28;20197;-82
2021/06/19 12:41:49;;;;;;;6.15;4.00;;;;;;;;;;5113443;28;20181;-82
2021/06/19 12:44:15;;;;;;;4.78;4.13;;;;;;;;;;5111854;28;20597;-82
2021/06/19 12:46:41;;;;;;;7.07;3.83;;;;;;;;;;5111415;28;20261;-82
2021/06/19 12:49:07;;;;;;;8.63;3.95;;;31.00;92.70;;;;;;5111797;28;20182;-82
2021/06/19 12:51:37;;;;;;;8.02;3.80;;;31.00;92.30;;;;;;5112480;28;20182;-82
2021/06/19 12:54:18;;;;;;;5.97;4.82;;;31.10;96.40;;;;;;5112998;28;20227;-82
2021/06/19 12:57:03;;;;;;;4.10;3.70;;;31.10;92.30;;;;;;5111869;28;20190;-82
2021/06/19 12:59:29;;;;;;;6.15;3.42;;;;;;;;;;5108578;28;20616;-83
2021/06/19 13:02:04;;;;;;;5.30;3.85;;;31.20;91.90;;;;;;5111629;28;20198;-82
2021/06/19 13:04:30;;;;;;;4.13;3.70;;;30.80;91.80;;;;;;5109794;28;20169;-81
2021/06/19 13:07:13;;;;;;;4.80;3.28;;;30.50;95.90;;;;;;5112837;28;20174;-81
2021/06/19 13:09:53;;;;;;;5.88;4.05;;;30.30;96.50;;;;;;5110569;28;20201;-82
2021/06/19 13:12:24;;;;;;;7.20;3.85;;;31.10;95.80;;;;;;5112692;28;20174;-82
2021/06/19 13:15:11;;;;;;;6.32;3.88;;;30.40;92.10;;;;;;5116137;28;20252;-82
2021/06/19 13:17:48;;;;;;;5.28;4.50;;;29.80;95.90;;;;;;5114386;28;20269;-84
2021/06/19 13:20:37;;;;;;;6.07;4.00;;;29.50;97.10;;;;;;5112902;28;20665;-83
2021/06/19 13:23:06;;;;;;;6.75;4.00;;;29.60;93.80;;;;;;5113949;28;20174;-82
2021/06/19 13:25:50;;;;;;;9.70;4.13;;;30.10;98.50;;;;;;5113488;28;20178;-82